createdAt,value
2018-12-19T00:02:03.820Z,15.73
2018-12-19T00:07:06.448Z,16.30
2018-12-19T00:12:09.040Z,15.70
2018-12-19T00:17:11.612Z,15.87
2018-12-19T00:22:14.180Z,16.97
2018-12-19T00:27:16.862Z,15.83
2018-12-19T00:32:19.814Z,15.50
2018-12-19T00:37:23.150Z,15.63
2018-12-19T00:42:25.794Z,15.03
2018-12-19T00:47:28.643Z,15.40
2018-12-19T00:52:31.489Z,15.57
2018-12-19T00:57:34.198Z,15.53
2018-12-19T01:02:36.851Z,14.90
2018-12-19T01:07:39.436Z,14.23
2018-12-19T01:12:42.005Z,13.70
2018-12-19T01:17:44.753Z,13.13
2018-12-19T01:22:47.358Z,12.40
2018-12-19T01:27:50.494Z,12.17
2018-12-19T01:32:53.120Z,11.83
2018-12-19T01:37:55.793Z,12.13
2018-12-19T01:42:58.397Z,11.87
2018-12-19T01:48:00.998Z,12.10
2018-12-19T01:53:03.613Z,12.37
2018-12-19T01:58:06.411Z,11.23
2018-12-19T02:03:09.106Z,12.77
2018-12-19T02:08:12.524Z,12.50
2018-12-19T02:13:15.323Z,12.20
2018-12-19T02:18:18.115Z,12.07
2018-12-19T02:23:20.677Z,11.10
2018-12-19T02:28:23.296Z,11.40
2018-12-19T02:33:26.605Z,11.53
2018-12-19T02:38:29.379Z,10.77
2018-12-19T02:43:32.815Z,10.87
2018-12-19T02:48:35.382Z,11.07
2018-12-19T02:53:37.950Z,10.67
2018-12-19T02:58:40.617Z,10.50
2018-12-19T03:03:43.237Z,9.90
2018-12-19T03:08:46.017Z,9.83
2018-12-19T03:13:50.766Z,10.07
2018-12-19T03:18:53.629Z,10.23
2018-12-19T03:23:56.282Z,10.10
2018-12-19T03:28:58.958Z,9.80
2018-12-19T03:34:01.654Z,9.87
2018-12-19T03:39:06.506Z,9.60
2018-12-19T03:44:09.200Z,9.97
2018-12-19T03:49:11.883Z,9.20
2018-12-19T03:54:14.497Z,9.03
2018-12-19T03:59:17.180Z,8.70
2018-12-19T04:04:19.960Z,8.23
2018-12-19T04:09:22.650Z,9.03
2018-12-19T04:14:25.350Z,9.33
2018-12-19T04:19:27.900Z,9.17
2018-12-19T04:24:30.481Z,9.03
2018-12-19T04:29:33.834Z,9.37
2018-12-19T04:34:36.408Z,9.33
2018-12-19T04:39:39.176Z,8.73
2018-12-19T04:44:41.763Z,8.67
2018-12-19T04:49:44.638Z,8.73
2018-12-19T04:54:47.268Z,9.00
2018-12-19T04:59:50.201Z,9.05
2018-12-19T05:04:52.777Z,9.00
2018-12-19T05:09:55.581Z,9.13
2018-12-19T05:14:58.164Z,8.97
2018-12-19T05:20:00.964Z,9.30
2018-12-19T05:25:06.977Z,9.87
2018-12-19T05:30:10.060Z,10.50
2018-12-19T05:35:13.001Z,9.70
2018-12-19T05:40:18.770Z,10.10
2018-12-19T05:45:20.449Z,9.87
2018-12-19T05:50:23.481Z,10.70
2018-12-19T05:55:26.102Z,10.43
2018-12-19T06:00:29.167Z,10.27
2018-12-19T06:05:31.881Z,10.20
2018-12-19T06:10:34.474Z,10.57
2018-12-19T06:15:37.029Z,10.60
2018-12-19T06:20:39.789Z,11.05
2018-12-19T06:25:42.488Z,11.00
2018-12-19T06:30:45.288Z,10.97
2018-12-19T06:35:47.832Z,11.60
2018-12-19T06:40:50.449Z,11.03
2018-12-19T06:45:53.053Z,11.47
2018-12-19T06:50:55.681Z,11.93
2018-12-19T06:55:58.355Z,11.03
2018-12-19T07:01:01.120Z,11.57
2018-12-19T07:06:03.715Z,11.07
2018-12-19T07:11:06.306Z,11.93
2018-12-19T07:16:08.953Z,11.23
2018-12-19T07:21:11.521Z,11.90
2018-12-19T07:26:14.134Z,11.50
2018-12-19T07:31:16.724Z,11.27
2018-12-19T07:36:19.305Z,12.90
2018-12-19T07:41:22.031Z,12.47
2018-12-19T07:46:24.906Z,12.13
2018-12-19T07:51:27.978Z,12.20
2018-12-19T07:56:30.877Z,11.30
2018-12-19T08:01:34.062Z,12.43
2018-12-19T08:06:36.769Z,11.97
2018-12-19T08:11:40.072Z,12.63
2018-12-19T08:16:42.711Z,13.13
2018-12-19T08:21:45.372Z,12.73
2018-12-19T08:26:48.104Z,12.97
2018-12-19T08:31:50.649Z,11.43
2018-12-19T08:36:53.212Z,12.87
2018-12-19T08:41:56.249Z,11.63
2018-12-19T08:46:59.043Z,12.07
2018-12-19T08:52:01.685Z,11.73
2018-12-19T08:57:04.308Z,12.70
2018-12-19T09:02:06.935Z,11.50
2018-12-19T09:07:09.948Z,11.77
2018-12-19T09:12:12.625Z,11.60
2018-12-19T09:17:15.954Z,11.60
2018-12-19T09:22:19.147Z,11.90
2018-12-19T09:27:21.814Z,12.23
2018-12-19T09:32:24.755Z,11.23
2018-12-19T09:37:27.349Z,10.53
2018-12-19T09:42:30.045Z,11.80
2018-12-19T09:47:32.716Z,10.70
2018-12-19T09:52:35.639Z,11.53
2018-12-19T09:57:39.356Z,10.87
2018-12-19T10:02:42.077Z,11.10
2018-12-19T10:07:44.745Z,11.00
2018-12-19T10:12:48.175Z,12.03
2018-12-19T10:17:50.796Z,11.87
2018-12-19T10:22:54.888Z,11.50
2018-12-19T10:27:58.133Z,12.23
2018-12-19T10:33:00.899Z,12.20
2018-12-19T10:38:03.699Z,12.17
2018-12-19T10:43:06.255Z,11.70
2018-12-19T10:48:09.061Z,12.13
2018-12-19T10:53:11.931Z,12.13
2018-12-19T10:58:14.691Z,11.63
2018-12-19T11:03:17.406Z,11.87
2018-12-19T11:08:20.426Z,11.90
2018-12-19T11:13:23.109Z,12.50
2018-12-19T11:18:25.812Z,11.87
2018-12-19T11:23:30.307Z,11.43
2018-12-19T11:28:32.935Z,12.20
2018-12-19T11:33:35.583Z,13.00
2018-12-19T11:38:38.224Z,13.13
2018-12-19T11:43:40.890Z,13.77
2018-12-19T11:48:43.624Z,13.60
2018-12-19T11:53:46.464Z,13.30
2018-12-19T11:58:49.225Z,14.80
2018-12-19T12:03:51.976Z,14.67
2018-12-19T12:08:54.526Z,14.83
2018-12-19T12:13:57.065Z,15.30
2018-12-19T12:18:59.707Z,15.03
2018-12-19T12:24:02.471Z,15.57
2018-12-19T12:29:05.306Z,15.17
2018-12-19T12:34:08.097Z,14.27
2018-12-19T12:39:10.674Z,13.40
2018-12-19T12:44:13.265Z,13.53
2018-12-19T12:49:15.809Z,14.30
2018-12-19T12:54:19.174Z,14.23
2018-12-19T12:59:22.081Z,14.43
2018-12-19T13:04:24.910Z,14.47
2018-12-19T13:09:27.514Z,13.87
2018-12-19T13:14:30.301Z,15.27
2018-12-19T13:19:32.958Z,14.47
2018-12-19T13:24:36.003Z,14.67
2018-12-19T13:29:38.797Z,13.97
2018-12-19T13:34:41.706Z,15.40
2018-12-19T13:39:44.849Z,15.07
2018-12-19T13:44:47.431Z,14.17
2018-12-19T13:49:50.202Z,14.53
2018-12-19T13:54:52.826Z,15.83
2018-12-19T13:59:55.410Z,15.07
2018-12-19T14:04:58.096Z,15.37
2018-12-19T14:10:01.426Z,15.77
2018-12-19T14:15:04.874Z,15.10
2018-12-19T14:20:08.325Z,15.60
2018-12-19T14:25:11.826Z,15.50
2018-12-19T14:30:14.445Z,16.13
2018-12-19T14:35:17.659Z,15.80
2018-12-19T14:40:20.249Z,16.07
2018-12-19T14:45:23.099Z,16.90
2018-12-19T14:50:26.888Z,16.60
2018-12-19T14:55:29.493Z,15.90
2018-12-19T15:00:32.122Z,17.03
2018-12-19T15:05:34.725Z,17.00
2018-12-19T15:10:37.355Z,17.20
2018-12-19T15:15:40.053Z,16.97
2018-12-19T15:20:43.256Z,16.77
2018-12-19T15:25:46.037Z,17.33
2018-12-19T15:30:48.745Z,18.00
2018-12-19T15:35:51.438Z,18.00
2018-12-19T15:40:54.146Z,18.10
2018-12-19T15:45:57.062Z,18.53
2018-12-19T15:50:59.774Z,18.90
2018-12-19T15:56:02.364Z,17.73
2018-12-19T16:01:05.106Z,19.57
2018-12-19T16:06:07.985Z,20.43
2018-12-19T16:11:10.856Z,18.93
2018-12-19T16:16:13.502Z,19.07
2018-12-19T16:21:16.061Z,20.33
2018-12-19T16:26:18.619Z,20.07
2018-12-19T16:31:21.180Z,21.13
2018-12-19T16:36:23.827Z,19.67
2018-12-19T16:41:27.421Z,21.07
2018-12-19T16:46:30.251Z,21.83
2018-12-19T16:51:32.892Z,20.97
2018-12-19T16:56:35.656Z,21.30
2018-12-19T17:01:39.179Z,22.00
2018-12-19T17:06:41.781Z,21.37
2018-12-19T17:11:44.394Z,21.60
2018-12-19T17:16:47.054Z,22.20
2018-12-19T17:21:49.751Z,21.30
2018-12-19T17:26:52.298Z,23.73
2018-12-19T17:31:55.463Z,23.33
2018-12-19T17:36:58.079Z,23.53
2018-12-19T17:42:01.699Z,22.27
2018-12-19T17:47:04.540Z,24.47
2018-12-19T17:52:07.269Z,23.10
2018-12-19T17:57:09.821Z,23.90
2018-12-19T18:02:12.600Z,23.50
2018-12-19T18:07:15.260Z,24.20
2018-12-19T18:12:17.959Z,24.87
2018-12-19T18:17:20.634Z,25.50
2018-12-19T18:22:23.455Z,25.37
2018-12-19T18:27:26.047Z,24.83
2018-12-19T18:32:28.693Z,26.77
2018-12-19T18:37:31.263Z,25.57
2018-12-19T18:42:33.994Z,25.27
2018-12-19T18:47:37.297Z,25.97
2018-12-19T18:52:40.583Z,27.43
2018-12-19T18:57:43.260Z,27.27
2018-12-19T19:02:46.417Z,26.70
2018-12-19T19:07:49.190Z,26.40
2018-12-19T19:12:51.799Z,26.40
2018-12-19T19:17:54.386Z,26.73
2018-12-19T19:22:57.865Z,26.30
2018-12-19T19:28:00.521Z,26.47
2018-12-19T19:33:03.245Z,26.17
2018-12-19T19:43:12.690Z,25.57
2018-12-19T19:48:15.230Z,26.20
2018-12-19T19:53:18.112Z,26.50
2018-12-19T19:58:20.846Z,25.67
2018-12-19T20:03:23.650Z,26.77
2018-12-19T20:08:26.243Z,26.20
2018-12-19T20:13:33.303Z,25.75
2018-12-19T20:18:33.599Z,25.67
2018-12-19T20:23:36.246Z,41.97
2018-12-19T20:28:38.833Z,26.33
2018-12-19T20:33:41.433Z,25.73
2018-12-19T20:38:44.114Z,27.40
2018-12-19T20:43:46.854Z,26.83
2018-12-19T20:48:50.181Z,27.30
2018-12-19T20:53:53.502Z,26.30
2018-12-19T20:58:56.810Z,28.67
2018-12-19T21:03:59.509Z,27.70
2018-12-19T21:09:02.826Z,28.47
2018-12-19T21:14:05.488Z,25.57
2018-12-19T21:19:08.124Z,26.60
2018-12-19T21:24:10.815Z,26.50
2018-12-19T21:29:13.565Z,26.47
2018-12-19T21:34:16.310Z,26.10
2018-12-19T21:39:19.214Z,27.00
2018-12-19T21:44:22.037Z,26.23
2018-12-19T21:49:24.825Z,25.27
2018-12-19T21:54:27.802Z,24.73
2018-12-19T21:59:30.405Z,25.60
2018-12-19T22:04:33.007Z,24.53
2018-12-19T22:09:36.170Z,26.33
2018-12-19T22:14:38.789Z,25.87
2018-12-19T22:19:41.508Z,25.02
2018-12-19T22:24:45.123Z,25.77
2018-12-19T22:29:47.758Z,25.57
2018-12-19T22:34:50.941Z,26.13
2018-12-19T22:39:53.718Z,26.00
2018-12-19T22:44:56.399Z,24.07
2018-12-19T22:49:59.217Z,24.70
2018-12-19T22:55:01.850Z,24.93
2018-12-19T23:00:08.333Z,27.43
2018-12-19T23:05:11.219Z,26.90
2018-12-19T23:10:14.459Z,27.93
2018-12-19T23:15:19.229Z,27.23
2018-12-19T23:20:22.003Z,27.37
2018-12-19T23:25:24.699Z,27.13
2018-12-19T23:30:28.239Z,29.37
2018-12-19T23:35:31.057Z,29.03
2018-12-19T23:40:33.831Z,27.97
2018-12-19T23:45:36.646Z,28.20
2018-12-19T23:50:39.889Z,28.10
2018-12-19T23:55:42.582Z,28.10
